Time;durP1;ratioP1;P1;durP2;ratioP2;P2;SDS_P1;SDS_P2;PMS_P1;PMS_P2;Temp;Humidity;BMP_temperature;BMP_pressure;BME280_temperature;BME280_humidity;BME280_pressure;Samples;Min_cycle;Max_cycle;Signal;HPM_P1;HPM_P2
2021/05/12 00:00:12;;;;;;;2.42;1.50;;;13.90;99.90;;;;;;5095859;28;20202;-75
2021/05/12 00:02:39;;;;;;;1.98;1.85;;;13.90;99.90;;;;;;5094369;28;20216;-76
2021/05/12 00:05:08;;;;;;;1.90;1.70;;;13.90;99.90;;;;;;5095057;28;20226;-75
2021/05/12 00:07:34;;;;;;;1.73;1.63;;;13.90;99.90;;;;;;5093716;28;20676;-76
2021/05/12 00:10:01;;;;;;;1.70;1.58;;;13.90;99.90;;;;;;5094446;28;20289;-76
2021/05/12 00:12:28;;;;;;;1.77;1.67;;;13.80;99.90;;;;;;5094468;28;20244;-77
2021/05/12 00:14:54;;;;;;;1.90;1.50;;;13.90;99.90;;;;;;5093168;28;20229;-76
2021/05/12 00:17:21;;;;;;;1.98;1.77;;;13.90;99.90;;;;;;5085386;28;20195;-76
2021/05/12 00:19:54;;;;;;;2.38;2.17;;;13.80;99.90;;;;;;5075334;28;20230;-76
2021/05/12 00:22:32;;;;;;;2.40;2.10;;;13.80;99.90;;;;;;5076161;28;20204;-75
2021/05/12 00:24:59;;;;;;;2.50;2.25;;;13.90;99.90;;;;;;5075718;28;20231;-75
2021/05/12 00:27:25;;;;;;;2.25;2.10;;;13.80;99.90;;;;;;5075829;28;20296;-75
2021/05/12 00:29:52;;;;;;;1.92;1.80;;;13.80;99.90;;;;;;5075521;28;20202;-75
2021/05/12 00:32:18;;;;;;;3.05;2.08;;;13.80;99.90;;;;;;5075228;28;20199;-74
2021/05/12 00:34:45;;;;;;;2.00;1.90;;;13.70;99.90;;;;;;5074810;28;20313;-74
2021/05/12 00:37:12;;;;;;;1.88;1.75;;;13.70;99.90;;;;;;5075085;28;20303;-75
2021/05/12 00:39:38;;;;;;;3.42;2.40;;;13.70;99.90;;;;;;5075404;28;20294;-74
2021/05/12 00:42:06;;;;;;;2.22;2.08;;;13.60;99.90;;;;;;5075430;28;20249;-75
2021/05/12 00:44:32;;;;;;;1.98;1.88;;;13.60;99.90;;;;;;5074708;28;20210;-74
2021/05/12 00:47:03;;;;;;;4.45;2.33;;;13.50;99.90;;;;;;5074942;28;20297;-74
2021/05/12 00:49:29;;;;;;;1.90;1.80;;;13.40;99.90;;;;;;5074882;28;20207;-74
2021/05/12 00:51:57;;;;;;;2.15;2.05;;;13.40;99.90;;;;;;5074872;28;20252;-74
2021/05/12 00:54:23;;;;;;;2.28;2.00;;;13.30;99.90;;;;;;5074717;28;20344;-74
2021/05/12 00:56:50;;;;;;;2.20;1.73;;;13.20;99.90;;;;;;5074462;28;20225;-74
2021/05/12 00:59:16;;;;;;;3.55;2.42;;;13.20;99.90;;;;;;5074618;28;20203;-74
2021/05/12 01:01:43;;;;;;;1.95;1.60;;;13.00;99.90;;;;;;5074657;28;20206;-76
2021/05/12 01:04:09;;;;;;;1.90;1.75;;;12.90;99.90;;;;;;5074642;28;20298;-74
2021/05/12 01:06:37;;;;;;;2.30;2.00;;;12.90;99.90;;;;;;5074207;28;20310;-74
2021/05/12 01:09:06;;;;;;;2.67;1.90;;;12.90;99.90;;;;;;5075821;28;20205;-74
2021/05/12 01:11:33;;;;;;;1.90;1.80;;;12.80;99.90;;;;;;5074479;28;20604;-74
2021/05/12 01:13:59;;;;;;;2.13;1.92;;;12.80;99.90;;;;;;5074095;28;20293;-74
2021/05/12 01:16:26;;;;;;;2.05;1.88;;;12.80;99.90;;;;;;5074205;28;20317;-74
2021/05/12 01:18:52;;;;;;;2.38;1.75;;;12.80;99.90;;;;;;5074401;28;20343;-74
2021/05/12 01:21:20;;;;;;;2.03;1.83;;;12.80;99.90;;;;;;5075375;28;20294;-73
2021/05/12 01:23:49;;;;;;;1.75;1.65;;;12.70;99.90;;;;;;5074092;28;20293;-73
2021/05/12 01:26:18;;;;;;;2.08;1.88;;;12.70;99.90;;;;;;5073617;28;20223;-73
2021/05/12 01:28:47;;;;;;;2.03;1.58;;;12.70;99.90;;;;;;5074227;28;20553;-73
2021/05/12 01:31:17;;;;;;;1.52;1.42;;;12.70;99.90;;;;;;5074158;28;20657;-75
2021/05/12 01:33:44;;;;;;;1.80;1.70;;;12.70;99.90;;;;;;5074200;28;20298;-75
2021/05/12 01:36:11;;;;;;;1.80;1.50;;;12.60;99.90;;;;;;5074017;28;20236;-75
2021/05/12 01:38:40;;;;;;;1.50;1.40;;;12.60;99.90;;;;;;5073949;28;20286;-75
2021/05/12 01:41:07;;;;;;;1.73;1.63;;;12.60;99.90;;;;;;5076274;28;20206;-75
2021/05/12 01:43:35;;;;;;;2.05;1.70;;;12.60;99.90;;;;;;5076038;28;20289;-76
2021/05/12 01:46:02;;;;;;;2.33;1.80;;;12.50;99.90;;;;;;5075963;28;20227;-75
2021/05/12 01:48:29;;;;;;;2.22;1.92;;;12.50;99.90;;;;;;5075491;28;20705;-75
2021/05/12 01:50:55;;;;;;;2.42;2.22;;;12.50;99.90;;;;;;5076293;28;20252;-75
2021/05/12 01:53:22;;;;;;;2.22;2.08;;;12.50;99.90;;;;;;5075880;28;20238;-76
2021/05/12 01:55:50;;;;;;;2.75;2.38;;;12.50;99.90;;;;;;5074920;28;20234;-75
2021/05/12 01:58:17;;;;;;;4.20;2.13;;;12.40;99.90;;;;;;5074926;28;20206;-75
2021/05/12 02:00:46;;;;;;;2.40;1.85;;;12.40;99.90;;;;;;5074063;28;20660;-75
2021/05/12 02:03:12;;;;;;;2.47;2.28;;;12.50;99.90;;;;;;5073983;28;20225;-75
2021/05/12 02:05:40;;;;;;;3.22;2.47;;;12.40;99.90;;;;;;5074670;28;20309;-75
2021/05/12 02:08:09;;;;;;;2.97;2.67;;;12.40;99.90;;;;;;5075852;28;20213;-75
2021/05/12 02:10:37;;;;;;;2.80;2.60;;;12.40;99.90;;;;;;5076545;28;20271;-76
2021/05/12 02:13:04;;;;;;;3.50;3.20;;;12.30;99.90;;;;;;5075179;28;20298;-75
2021/05/12 02:15:31;;;;;;;3.25;2.95;;;12.30;99.90;;;;;;5073477;28;20226;-75
2021/05/12 02:17:57;;;;;;;3.50;3.20;;;12.40;99.90;;;;;;5075408;28;20206;-75
2021/05/12 02:20:26;;;;;;;3.67;3.28;;;12.30;99.90;;;;;;5075713;28;20289;-75
2021/05/12 02:22:53;;;;;;;3.25;2.90;;;12.30;99.90;;;;;;5075008;28;20287;-75
2021/05/12 02:25:19;;;;;;;3.92;3.10;;;12.30;99.90;;;;;;5073758;28;20250;-75
2021/05/12 02:27:46;;;;;;;3.35;3.05;;;12.30;99.90;;;;;;5073739;28;20229;-75
2021/05/12 02:30:14;;;;;;;3.13;2.88;;;12.30;99.90;;;;;;5073674;28;20209;-75
2021/05/12 02:32:41;;;;;;;4.40;3.28;;;12.40;99.90;;;;;;5073808;28;20289;-75
2021/05/12 02:35:09;;;;;;;4.00;2.70;;;12.40;99.90;;;;;;5074877;28;20312;-75
2021/05/12 02:37:36;;;;;;;4.22;3.20;;;12.40;99.90;;;;;;5077221;28;20556;-75
2021/05/12 02:40:04;;;;;;;4.88;3.47;;;12.40;99.90;;;;;;5077508;28;20293;-75
2021/05/12 02:42:30;;;;;;;3.85;3.55;;;12.40;99.90;;;;;;5078713;28;20202;-75
2021/05/12 02:44:56;;;;;;;3.70;3.35;;;12.40;99.90;;;;;;5077516;28;20306;-75
2021/05/12 02:47:24;;;;;;;5.93;3.67;;;12.40;99.90;;;;;;5077544;28;20289;-75
2021/05/12 02:49:50;;;;;;;4.40;3.03;;;12.40;99.90;;;;;;5078357;28;20203;-76
2021/05/12 02:52:17;;;;;;;3.90;3.50;;;12.40;99.90;;;;;;5078075;28;20311;-75
2021/05/12 02:54:43;;;;;;;5.43;3.85;;;12.40;99.90;;;;;;5077715;28;20538;-75
2021/05/12 02:57:10;;;;;;;4.72;3.95;;;12.40;99.90;;;;;;5077053;28;20740;-75
2021/05/12 02:59:36;;;;;;;4.82;3.72;;;12.40;99.90;;;;;;5077298;28;20726;-75
2021/05/12 03:02:03;;;;;;;4.60;4.18;;;12.30;99.90;;;;;;5077530;28;20308;-75
2021/05/12 03:04:30;;;;;;;4.85;3.90;;;12.30;99.90;;;;;;5077199;28;20203;-75
2021/05/12 03:06:56;;;;;;;4.95;4.25;;;12.30;99.90;;;;;;5076581;28;20294;-75
2021/05/12 03:09:23;;;;;;;6.28;4.22;;;12.30;99.90;;;;;;5077008;28;20301;-75
2021/05/12 03:11:50;;;;;;;5.35;4.50;;;12.30;99.90;;;;;;5076982;28;20234;-75
2021/05/12 03:14:16;;;;;;;5.57;4.00;;;12.40;99.90;;;;;;5077250;28;20245;-75
2021/05/12 03:16:43;;;;;;;7.28;4.53;;;12.30;99.90;;;;;;5078339;28;20226;-75
2021/05/12 03:19:10;;;;;;;6.85;4.45;;;12.30;99.90;;;;;;5076627;28;20202;-76
2021/05/12 03:21:38;;;;;;;5.93;4.30;;;12.40;99.90;;;;;;5076752;28;20199;-76
2021/05/12 03:24:05;;;;;;;6.30;5.05;;;12.40;99.90;;;;;;5077106;28;20241;-76
2021/05/12 03:26:32;;;;;;;5.65;4.90;;;12.30;99.90;;;;;;5076540;28;20223;-75
2021/05/12 03:28:59;;;;;;;7.95;4.85;;;12.30;99.90;;;;;;5077601;28;20297;-75
2021/05/12 03:31:25;;;;;;;5.35;4.60;;;12.30;99.90;;;;;;5077997;28;20591;-76
2021/05/12 03:33:55;;;;;;;5.95;4.90;;;12.30;99.90;;;;;;5077758;28;20289;-75
2021/05/12 03:36:21;;;;;;;7.60;5.15;;;12.30;99.90;;;;;;5077623;28;20222;-75
2021/05/12 03:38:49;;;;;;;7.55;5.05;;;12.30;99.90;;;;;;5077933;28;20297;-75
2021/05/12 03:41:15;;;;;;;7.00;5.72;;;12.30;99.90;;;;;;5078520;28;20302;-76
2021/05/12 03:43:41;;;;;;;10.25;7.10;;;12.30;99.90;;;;;;5078330;28;20211;-75
2021/05/12 03:46:08;;;;;;;9.75;6.15;;;12.30;99.90;;;;;;5076037;28;20308;-75
2021/05/12 03:48:34;;;;;;;6.85;5.15;;;12.30;99.90;;;;;;5076569;28;20252;-76
2021/05/12 03:51:01;;;;;;;6.40;5.63;;;12.30;99.90;;;;;;5075949;28;20203;-75
2021/05/12 03:53:27;;;;;;;7.72;5.60;;;12.30;99.90;;;;;;5075957;28;20232;-76
2021/05/12 03:55:54;;;;;;;7.00;5.50;;;12.30;99.90;;;;;;5075482;28;20696;-75
2021/05/12 03:58:21;;;;;;;8.50;6.03;;;12.30;99.90;;;;;;5075862;28;20209;-76
2021/05/12 04:00:47;;;;;;;7.28;5.72;;;12.40;99.90;;;;;;5075772;28;20623;-76
2021/05/12 04:03:14;;;;;;;12.07;6.15;;;12.40;99.90;;;;;;5076762;28;20202;-76
2021/05/12 04:05:40;;;;;;;12.73;5.75;;;12.40;99.90;;;;;;5076013;28;20215;-76
2021/05/12 04:08:07;;;;;;;6.88;5.50;;;12.40;99.90;;;;;;5077695;28;20207;-76
2021/05/12 04:10:33;;;;;;;9.48;6.70;;;12.40;99.90;;;;;;5076626;28;20217;-75
2021/05/12 04:13:01;;;;;;;10.65;6.22;;;12.40;99.90;;;;;;5075592;28;20213;-76
2021/05/12 04:15:27;;;;;;;8.63;5.88;;;12.50;99.90;;;;;;5074931;28;20227;-75
2021/05/12 04:17:54;;;;;;;8.88;7.00;;;12.50;99.90;;;;;;5075773;28;20614;-76
2021/05/12 04:20:22;;;;;;;12.73;6.18;;;12.50;99.90;;;;;;5076593;28;20340;-76
2021/05/12 04:22:49;;;;;;;11.23;7.50;;;12.50;99.90;;;;;;5077172;28;20301;-76
2021/05/12 04:25:17;;;;;;;8.52;6.30;;;12.50;99.90;;;;;;5075630;28;20338;-76
2021/05/12 04:27:44;;;;;;;9.07;6.95;;;12.50;99.90;;;;;;5075698;28;20298;-76
2021/05/12 04:30:13;;;;;;;11.70;7.18;;;12.50;99.90;;;;;;5075201;28;20202;-76
2021/05/12 04:32:40;;;;;;;8.23;5.53;;;12.60;99.90;;;;;;5075166;28;20203;-76
2021/05/12 04:35:08;;;;;;;9.18;6.35;;;12.60;99.90;;;;;;5075199;28;20231;-76
2021/05/12 04:37:34;;;;;;;8.77;6.25;;;12.60;99.90;;;;;;5075135;28;20733;-75
2021/05/12 04:40:01;;;;;;;10.32;6.20;;;12.70;99.90;;;;;;5074671;28;20293;-76
2021/05/12 04:42:27;;;;;;;8.95;5.90;;;12.70;99.90;;;;;;5075084;28;20294;-76
2021/05/12 04:44:53;;;;;;;8.63;5.78;;;12.60;99.90;;;;;;5074818;28;20645;-75
2021/05/12 04:47:21;;;;;;;11.10;6.40;;;12.70;99.90;;;;;;5074906;28;20203;-75
2021/05/12 04:49:47;;;;;;;9.07;5.85;;;12.70;99.90;;;;;;5074537;28;20213;-75
2021/05/12 04:52:14;;;;;;;8.63;6.00;;;12.70;99.90;;;;;;5074996;28;20717;-75
2021/05/12 04:54:41;;;;;;;7.63;5.65;;;12.70;99.90;;;;;;5074480;28;20218;-75
2021/05/12 04:57:07;;;;;;;8.32;5.53;;;12.80;99.90;;;;;;5074152;28;20668;-75
2021/05/12 04:59:34;;;;;;;7.60;5.20;;;12.80;99.90;;;;;;5074202;28;20542;-75
2021/05/12 05:02:02;;;;;;;9.50;5.30;;;12.80;99.90;;;;;;5074699;28;20297;-75
2021/05/12 05:04:29;;;;;;;6.75;5.40;;;12.80;99.90;;;;;;5074324;28;20199;-75
2021/05/12 05:06:56;;;;;;;11.63;7.00;;;12.80;99.90;;;;;;5074110;28;20234;-75
2021/05/12 05:09:22;;;;;;;6.55;5.03;;;12.70;99.90;;;;;;5074565;28;20262;-75
2021/05/12 05:11:48;;;;;;;7.47;4.78;;;12.60;99.90;;;;;;5074365;28;20599;-75
2021/05/12 05:14:15;;;;;;;6.15;4.20;;;12.60;99.90;;;;;;5074428;28;20294;-75
2021/05/12 05:16:41;;;;;;;6.13;4.68;;;12.50;99.90;;;;;;5073954;28;20309;-75
2021/05/12 05:19:08;;;;;;;4.72;4.32;;;12.50;99.90;;;;;;5074558;28;20206;-75
2021/05/12 05:21:35;;;;;;;7.35;4.35;;;12.50;99.90;;;;;;5074670;28;20207;-75
2021/05/12 05:24:01;;;;;;;6.40;4.82;;;12.30;99.90;;;;;;5074317;28;20294;-75
2021/05/12 05:26:28;;;;;;;7.00;4.50;;;12.30;99.90;;;;;;5075088;28;20226;-75
2021/05/12 05:28:54;;;;;;;5.75;3.80;;;12.30;99.90;;;;;;5074473;28;20289;-75
2021/05/12 05:31:20;;;;;;;6.63;4.28;;;12.40;99.90;;;;;;5074268;28;20209;-75
2021/05/12 05:33:47;;;;;;;5.30;4.00;;;12.40;99.90;;;;;;5074371;28;20298;-75
2021/05/12 05:36:13;;;;;;;5.63;4.03;;;12.40;99.90;;;;;;5073421;28;20230;-75
2021/05/12 05:38:40;;;;;;;4.70;4.10;;;12.50;99.90;;;;;;5074054;28;20293;-75
2021/05/12 05:41:06;;;;;;;5.70;4.38;;;12.60;99.90;;;;;;5074304;28;20202;-75
2021/05/12 05:43:33;;;;;;;6.78;4.00;;;12.60;99.90;;;;;;5074228;28;20297;-75
2021/05/12 05:45:59;;;;;;;6.40;4.00;;;12.60;99.90;;;;;;5073854;28;20255;-75
2021/05/12 05:48:26;;;;;;;12.27;7.57;;;12.60;99.90;;;;;;5074486;28;20285;-75
2021/05/12 05:50:52;;;;;;;7.47;3.75;;;12.60;99.90;;;;;;5073621;28;20705;-76
2021/05/12 05:53:18;;;;;;;5.50;4.00;;;12.50;99.90;;;;;;5074908;28;20394;-75
2021/05/12 05:55:46;;;;;;;5.20;4.07;;;12.50;99.90;;;;;;5075012;28;20271;-75
2021/05/12 05:58:12;;;;;;;4.63;4.18;;;12.50;99.90;;;;;;5074144;28;20293;-76
2021/05/12 06:00:40;;;;;;;4.82;3.88;;;12.60;99.90;;;;;;5074091;28;20243;-76
2021/05/12 06:03:07;;;;;;;4.40;3.75;;;12.50;99.90;;;;;;5073727;28;20198;-76
2021/05/12 06:05:33;;;;;;;7.32;4.47;;;12.60;99.90;;;;;;5073889;28;20309;-75
2021/05/12 06:07:59;;;;;;;10.38;4.25;;;12.60;99.90;;;;;;5074164;28;20215;-75
2021/05/12 06:10:26;;;;;;;4.32;3.70;;;12.70;99.90;;;;;;5076335;28;20293;-76
2021/05/12 06:12:53;;;;;;;5.68;4.05;;;12.80;99.90;;;;;;5077997;28;20281;-75
2021/05/12 06:15:20;;;;;;;5.05;3.70;;;12.80;99.90;;;;;;5077913;28;20656;-75
2021/05/12 06:17:46;;;;;;;3.88;3.38;;;12.80;99.90;;;;;;5078338;28;20728;-75
2021/05/12 06:20:13;;;;;;;7.60;3.97;;;12.90;99.90;;;;;;5077690;28;20248;-75
2021/05/12 06:22:40;;;;;;;4.63;3.70;;;12.80;99.90;;;;;;5078089;28;20289;-75
2021/05/12 06:25:09;;;;;;;4.95;3.60;;;12.80;99.90;;;;;;5077660;28;20743;-76
2021/05/12 06:27:36;;;;;;;5.88;3.70;;;12.80;99.90;;;;;;5077639;28;20205;-75
2021/05/12 06:30:04;;;;;;;4.35;3.63;;;12.80;99.90;;;;;;5077814;28;20202;-75
2021/05/12 06:32:30;;;;;;;5.65;3.40;;;12.70;99.90;;;;;;5077134;28;20298;-76
2021/05/12 06:34:57;;;;;;;4.30;3.75;;;12.70;99.90;;;;;;5076847;28;20353;-75
2021/05/12 06:37:23;;;;;;;5.72;3.53;;;12.70;99.90;;;;;;5077310;28;20542;-75
2021/05/12 06:39:50;;;;;;;4.15;3.60;;;12.70;99.90;;;;;;5077627;28;20234;-75
2021/05/12 06:42:17;;;;;;;3.58;3.20;;;12.80;99.90;;;;;;5077153;28;20234;-75
2021/05/12 06:44:43;;;;;;;4.18;3.50;;;12.80;99.90;;;;;;5077441;28;20199;-76
2021/05/12 06:47:10;;;;;;;4.40;3.45;;;12.80;99.90;;;;;;5076615;28;20696;-75
2021/05/12 06:49:36;;;;;;;4.88;3.80;;;12.80;99.90;;;;;;5077218;28;20289;-76
2021/05/12 06:52:03;;;;;;;4.70;3.65;;;12.90;99.90;;;;;;5077342;28;20632;-76
2021/05/12 06:54:30;;;;;;;5.20;3.22;;;12.90;99.90;;;;;;5077308;28;20211;-75
2021/05/12 06:56:56;;;;;;;4.07;2.72;;;12.80;99.90;;;;;;5076845;28;20693;-75
2021/05/12 06:59:22;;;;;;;3.72;2.85;;;12.80;99.90;;;;;;5077172;28;20285;-75
2021/05/12 07:01:49;;;;;;;5.45;3.00;;;12.80;99.90;;;;;;5076810;28;20231;-76
2021/05/12 07:04:16;;;;;;;3.05;2.75;;;12.80;99.90;;;;;;5077110;28;20245;-76
2021/05/12 07:06:43;;;;;;;3.13;2.88;;;12.80;99.90;;;;;;5076707;28;20234;-75
2021/05/12 07:09:09;;;;;;;3.97;3.25;;;12.80;99.90;;;;;;5077019;28;20298;-76
2021/05/12 07:11:35;;;;;;;3.75;2.90;;;12.80;99.90;;;;;;5076932;28;20644;-76
2021/05/12 07:14:03;;;;;;;5.00;2.83;;;12.70;99.90;;;;;;5076922;28;20206;-76
2021/05/12 07:16:29;;;;;;;6.50;3.85;;;12.80;99.90;;;;;;5076186;28;20681;-75
2021/05/12 07:18:55;;;;;;;5.85;3.25;;;12.90;99.90;;;;;;5076621;28;20202;-75
2021/05/12 07:21:23;;;;;;;6.18;3.30;;;12.80;99.90;;;;;;5077289;28;20242;-75
2021/05/12 07:23:49;;;;;;;3.38;2.88;;;12.70;99.90;;;;;;5077284;28;20297;-76
2021/05/12 07:26:15;;;;;;;3.40;2.78;;;12.80;99.90;;;;;;5076284;28;20255;-75
2021/05/12 07:28:42;;;;;;;3.03;2.83;;;12.80;99.90;;;;;;5076150;28;20293;-76
2021/05/12 07:31:09;;;;;;;4.63;3.20;;;12.80;99.90;;;;;;5077485;28;20210;-76
2021/05/12 07:33:35;;;;;;;3.42;2.75;;;12.80;99.90;;;;;;5077155;28;20240;-76
2021/05/12 07:36:02;;;;;;;4.45;2.63;;;12.70;99.90;;;;;;5076713;28;20315;-75
2021/05/12 07:38:29;;;;;;;3.72;2.75;;;12.70;99.90;;;;;;5077175;28;20207;-76
2021/05/12 07:40:58;;;;;;;3.03;2.80;;;12.70;99.90;;;;;;5076146;28;20207;-76
2021/05/12 07:43:24;;;;;;;5.18;3.22;;;12.70;99.90;;;;;;5076178;28;20210;-76
2021/05/12 07:45:51;;;;;;;3.83;2.75;;;12.80;99.90;;;;;;5076099;28;20223;-75
2021/05/12 07:48:17;;;;;;;3.13;2.90;;;12.60;99.90;;;;;;5076156;28;20289;-76
2021/05/12 07:50:43;;;;;;;3.33;2.40;;;12.60;99.90;;;;;;5075946;28;20699;-75
2021/05/12 07:53:10;;;;;;;3.72;2.97;;;12.60;99.90;;;;;;5075840;28;20297;-75
2021/05/12 07:55:37;;;;;;;4.00;3.08;;;12.70;99.90;;;;;;5075891;28;20317;-75
2021/05/12 07:58:04;;;;;;;3.90;2.40;;;12.60;99.90;;;;;;5075679;28;20207;-76
2021/05/12 08:00:33;;;;;;;3.33;2.92;;;12.70;99.90;;;;;;5075810;28;20213;-76
2021/05/12 08:02:59;;;;;;;4.75;2.92;;;12.70;99.90;;;;;;5075788;28;20217;-75
2021/05/12 08:05:26;;;;;;;7.25;2.90;;;12.70;99.90;;;;;;5075140;28;20238;-74
2021/05/12 08:07:52;;;;;;;6.00;3.58;;;12.60;99.90;;;;;;5073678;28;20212;-76
2021/05/12 08:10:19;;;;;;;10.43;6.93;;;12.60;99.90;;;;;;5073709;28;20286;-76
2021/05/12 08:12:46;;;;;;;4.57;3.30;;;12.70;99.90;;;;;;5073717;28;20229;-76
2021/05/12 08:15:13;;;;;;;3.10;2.90;;;12.70;99.90;;;;;;5073660;28;20233;-76
2021/05/12 08:17:39;;;;;;;4.57;3.10;;;12.80;99.90;;;;;;5075187;28;20211;-75
2021/05/12 08:20:07;;;;;;;3.13;2.50;;;12.80;99.90;;;;;;5075457;28;20290;-75
2021/05/12 08:22:33;;;;;;;3.45;2.85;;;12.90;99.90;;;;;;5075136;28;20550;-75
2021/05/12 08:25:00;;;;;;;3.90;3.00;;;12.90;99.90;;;;;;5075133;28;20226;-75
2021/05/12 08:27:26;;;;;;;3.70;2.72;;;12.90;99.90;;;;;;5075041;28;20298;-75
2021/05/12 08:29:55;;;;;;;3.33;2.90;;;12.90;99.90;;;;;;5075333;28;20297;-75
2021/05/12 08:32:21;;;;;;;4.00;2.60;;;12.80;99.90;;;;;;5075256;28;20557;-76
2021/05/12 08:34:48;;;;;;;2.85;2.55;;;12.90;99.90;;;;;;5073618;28;20294;-75
2021/05/12 08:37:14;;;;;;;3.15;2.85;;;12.80;99.90;;;;;;5074797;28;20252;-75
2021/05/12 08:39:40;;;;;;;3.00;2.40;;;12.80;99.90;;;;;;5074565;28;20650;-75
2021/05/12 08:42:07;;;;;;;3.38;2.63;;;12.70;99.90;;;;;;5074894;28;20286;-75
2021/05/12 08:44:35;;;;;;;3.17;2.00;;;12.80;99.90;;;;;;5074834;28;20214;-75
2021/05/12 08:47:02;;;;;;;3.67;2.35;;;12.80;99.90;;;;;;5074726;28;20207;-75
2021/05/12 08:49:33;;;;;;;3.45;3.10;;;12.80;99.90;;;;;;5074992;28;20213;-75
2021/05/12 08:52:01;;;;;;;8.15;2.30;;;12.80;99.90;;;;;;5074969;28;20206;-75
2021/05/12 08:54:27;;;;;;;2.80;2.60;;;12.90;99.90;;;;;;5074315;28;20253;-75
2021/05/12 08:56:54;;;;;;;2.95;2.50;;;12.90;99.90;;;;;;5074351;28;20222;-75
2021/05/12 08:59:20;;;;;;;3.78;2.53;;;12.90;99.90;;;;;;5074514;28;20230;-75
2021/05/12 09:01:46;;;;;;;4.35;3.13;;;13.00;99.90;;;;;;5074647;28;20203;-75
2021/05/12 09:04:14;;;;;;;5.70;2.85;;;12.90;99.90;;;;;;5074505;28;20203;-75
2021/05/12 09:06:40;;;;;;;3.53;3.22;;;12.70;99.90;;;;;;5074107;28;20638;-75
2021/05/12 09:09:08;;;;;;;3.85;3.20;;;12.70;99.90;;;;;;5074112;28;20289;-75
2021/05/12 09:11:35;;;;;;;3.65;2.83;;;12.70;99.90;;;;;;5074219;28;20198;-75
2021/05/12 09:14:02;;;;;;;5.13;2.80;;;12.80;99.90;;;;;;5074515;28;20589;-75
2021/05/12 09:16:29;;;;;;;5.63;3.10;;;12.70;99.90;;;;;;5074157;28;20227;-75
2021/05/12 09:19:06;;;;;;;4.75;3.00;;;12.80;99.90;;;;;;5074435;28;20344;-75
2021/05/12 09:21:47;;;;;;;3.83;3.15;;;12.90;99.90;;;;;;5074181;28;20552;-75
2021/05/12 09:24:26;;;;;;;3.17;2.55;;;12.90;99.90;;;;;;5074284;28;20211;-75
2021/05/12 09:26:55;;;;;;;3.83;2.88;;;12.90;99.90;;;;;;5073851;28;20218;-75
2021/05/12 09:29:23;;;;;;;3.95;3.40;;;12.90;99.90;;;;;;5074226;28;20291;-75
2021/05/12 09:31:50;;;;;;;3.08;2.75;;;12.90;99.90;;;;;;5073738;28;20209;-75
2021/05/12 09:34:16;;;;;;;3.40;2.80;;;13.00;99.90;;;;;;5074059;28;20289;-75
2021/05/12 09:36:43;;;;;;;4.25;2.90;;;13.10;99.90;;;;;;5073786;28;20287;-75
2021/05/12 09:39:11;;;;;;;3.38;2.80;;;13.10;99.90;;;;;;5074241;28;20301;-75
2021/05/12 09:41:37;;;;;;;4.10;3.13;;;13.00;99.90;;;;;;5074284;28;20230;-75
2021/05/12 09:44:06;;;;;;;4.85;3.90;;;13.00;99.90;;;;;;5073973;28;20554;-75
2021/05/12 09:46:34;;;;;;;8.25;3.15;;;13.00;99.90;;;;;;5073529;28;20222;-74
2021/05/12 09:49:09;;;;;;;3.05;2.40;;;13.00;99.90;;;;;;5073942;28;20211;-75
2021/05/12 09:51:38;;;;;;;3.58;2.70;;;13.00;99.90;;;;;;5073989;28;20202;-75
2021/05/12 09:54:11;;;;;;;4.70;3.33;;;13.00;99.90;;;;;;5073354;28;20253;-75
2021/05/12 09:56:46;;;;;;;4.65;2.75;;;13.00;99.90;;;;;;5073268;28;20250;-75
2021/05/12 09:59:16;;;;;;;2.92;2.60;;;13.00;99.90;;;;;;5073457;28;20202;-75
2021/05/12 10:01:44;;;;;;;3.00;2.70;;;13.10;99.90;;;;;;5073818;28;20208;-75
2021/05/12 10:04:27;;;;;;;4.82;2.70;;;13.20;99.90;;;;;;5073898;28;20282;-75
2021/05/12 10:06:55;;;;;;;5.90;2.90;;;13.20;99.90;;;;;;5073006;28;20305;-74
2021/05/12 10:09:23;;;;;;;3.60;3.30;;;13.10;99.90;;;;;;5073594;28;20292;-75
2021/05/12 10:12:10;;;;;;;7.35;3.30;;;13.00;99.90;;;;;;5073675;28;20304;-75
2021/05/12 10:14:39;;;;;;;4.03;3.03;;;13.10;99.90;;;;;;5073634;28;20202;-75
2021/05/12 10:17:06;;;;;;;3.88;3.30;;;13.10;99.90;;;;;;5073433;28;20305;-75
2021/05/12 10:19:33;;;;;;;3.17;2.80;;;13.10;99.90;;;;;;5073483;28;20202;-75
2021/05/12 10:22:01;;;;;;;6.15;2.92;;;13.10;99.90;;;;;;5073535;28;20620;-75
2021/05/12 10:24:29;;;;;;;3.92;3.25;;;13.20;99.90;;;;;;5073592;28;20206;-75
2021/05/12 10:26:57;;;;;;;3.97;3.20;;;13.20;99.90;;;;;;5073449;28;20557;-75
2021/05/12 10:29:23;;;;;;;3.72;2.72;;;13.30;99.90;;;;;;5073565;28;20202;-75
2021/05/12 10:31:50;;;;;;;3.83;2.70;;;13.40;99.90;;;;;;5073641;28;20206;-75
2021/05/12 10:34:18;;;;;;;4.00;3.10;;;13.50;99.90;;;;;;5073136;28;20287;-75
2021/05/12 10:36:45;;;;;;;3.33;2.90;;;13.50;99.90;;;;;;5072853;28;20237;-75
2021/05/12 10:39:11;;;;;;;3.85;3.08;;;13.50;99.90;;;;;;5073436;28;20241;-75
2021/05/12 10:41:41;;;;;;;4.10;2.95;;;13.50;99.90;;;;;;5073449;28;20238;-75
2021/05/12 10:44:13;;;;;;;5.55;2.80;;;13.50;99.90;;;;;;5073504;28;20241;-75
2021/05/12 10:47:02;;;;;;;3.20;2.90;;;13.50;99.90;;;;;;5072724;28;20222;-75
2021/05/12 10:49:28;;;;;;;2.75;2.55;;;13.40;99.90;;;;;;5073792;28;20248;-75
2021/05/12 10:51:54;;;;;;;4.32;2.90;;;13.50;99.90;;;;;;5073394;28;20289;-75
2021/05/12 10:54:41;;;;;;;3.78;2.60;;;13.60;99.90;;;;;;5073403;28;20289;-75
2021/05/12 10:57:09;;;;;;;3.30;2.80;;;13.70;99.90;;;;;;5074384;28;20222;-75
2021/05/12 10:59:40;;;;;;;6.47;3.25;;;13.80;99.90;;;;;;5076944;28;20623;-75
2021/05/12 11:02:06;;;;;;;4.28;3.60;;;13.80;99.90;;;;;;5076908;28;20203;-75
2021/05/12 11:04:33;;;;;;;10.45;6.35;;;13.90;99.90;;;;;;5076974;28;20289;-75
2021/05/12 11:07:02;;;;;;;5.35;3.67;;;13.90;99.90;;;;;;5076541;28;20293;-75
2021/05/12 11:09:40;;;;;;;4.20;3.10;;;13.90;99.90;;;;;;5077022;28;20202;-75
2021/05/12 11:12:08;;;;;;;3.45;3.15;;;13.90;99.90;;;;;;5076629;28;20245;-75
2021/05/12 11:14:36;;;;;;;4.35;3.10;;;14.00;99.90;;;;;;5076569;28;20692;-74
2021/05/12 11:17:03;;;;;;;3.40;2.60;;;14.00;99.90;;;;;;5076629;28;20222;-75
2021/05/12 11:19:48;;;;;;;5.10;2.95;;;14.10;99.90;;;;;;5076913;28;20206;-75
2021/05/12 11:22:43;;;;;;;4.03;3.20;;;14.00;99.90;;;;;;5076586;28;20216;-75
2021/05/12 11:25:18;;;;;;;3.72;3.35;;;14.00;99.90;;;;;;5063083;28;20718;-75
2021/05/12 11:33:49;;;;;;;3.88;2.63;;;14.30;99.90;;;;;;5076804;28;20538;-75
2021/05/12 11:36:18;;;;;;;3.20;2.72;;;14.40;99.90;;;;;;5076713;28;20231;-75
2021/05/12 11:38:45;;;;;;;3.97;2.80;;;14.50;99.90;;;;;;5076161;28;20601;-75
2021/05/12 11:41:14;;;;;;;2.80;2.60;;;14.60;99.90;;;;;;5076760;28;20206;-75
2021/05/12 11:43:43;;;;;;;5.05;3.28;;;14.70;99.90;;;;;;5076264;28;20206;-75
2021/05/12 11:46:12;;;;;;;2.90;2.60;;;14.60;99.90;;;;;;5075744;28;20251;-75
2021/05/12 11:48:41;;;;;;;3.70;2.67;;;14.60;99.90;;;;;;5076407;28;20246;-75
2021/05/12 11:51:07;;;;;;;4.20;2.83;;;14.50;99.90;;;;;;5076294;28;20206;-75
2021/05/12 11:53:37;;;;;;;4.38;2.75;;;14.60;99.90;;;;;;5076057;28;20301;-75
2021/05/12 11:56:04;;;;;;;4.75;2.88;;;14.30;99.90;;;;;;5075519;28;20227;-75
2021/05/12 11:58:30;;;;;;;4.25;2.90;;;14.40;99.90;;;;;;5075818;28;20292;-75
2021/05/12 12:01:13;;;;;;;3.65;2.90;;;14.40;99.90;;;;;;5076211;28;20232;-75
2021/05/12 12:03:45;;;;;;;4.90;2.70;;;14.60;99.90;;;;;;5076342;28;20675;-75
2021/05/12 12:06:15;;;;;;;2.95;2.33;;;14.70;99.90;;;;;;5076385;28;20290;-75
2021/05/12 12:08:41;;;;;;;3.15;2.85;;;14.70;99.90;;;;;;5076873;28;20210;-75
2021/05/12 12:11:10;;;;;;;3.92;2.83;;;14.80;99.90;;;;;;5075936;28;20206;-75
2021/05/12 12:13:37;;;;;;;3.25;2.85;;;14.90;99.90;;;;;;5076477;28;20294;-75
2021/05/12 12:16:05;;;;;;;4.03;2.92;;;15.10;99.90;;;;;;5075761;28;20231;-75
2021/05/12 12:18:34;;;;;;;3.50;2.72;;;15.20;99.90;;;;;;5075605;28;20205;-75
2021/05/12 12:21:01;;;;;;;3.03;2.70;;;15.20;99.90;;;;;;5075588;28;20302;-75
2021/05/12 12:23:33;;;;;;;3.10;2.65;;;15.20;99.90;;;;;;5075924;28;20218;-75
2021/05/12 12:26:13;;;;;;;3.13;2.83;;;15.20;99.90;;;;;;5076144;28;20623;-74
2021/05/12 12:28:41;;;;;;;2.75;2.28;;;15.00;99.90;;;;;;5076381;28;20209;-75
2021/05/12 12:31:11;;;;;;;2.85;2.50;;;15.00;99.90;;;;;;5075400;28;20211;-75
2021/05/12 12:33:39;;;;;;;2.92;2.60;;;14.90;99.90;;;;;;5075432;28;20208;-75
2021/05/12 12:36:07;;;;;;;3.33;2.78;;;14.90;99.90;;;;;;5075027;28;20223;-75
2021/05/12 12:38:34;;;;;;;3.78;2.72;;;14.80;99.90;;;;;;5075314;28;20299;-75
2021/05/12 12:41:01;;;;;;;3.78;3.00;;;14.90;99.90;;;;;;5075760;28;20201;-75
2021/05/12 12:43:38;;;;;;;6.40;2.83;;;14.80;99.90;;;;;;5074795;28;20203;-75
2021/05/12 12:46:05;;;;;;;3.50;2.85;;;14.80;99.90;;;;;;5074919;28;20218;-75
2021/05/12 12:48:32;;;;;;;3.50;2.70;;;14.70;99.90;;;;;;5074383;28;20302;-74
2021/05/12 12:50:59;;;;;;;3.50;2.85;;;14.60;99.90;;;;;;5075018;28;20201;-75
2021/05/12 12:53:29;;;;;;;5.60;3.47;;;14.70;99.90;;;;;;5074500;28;20251;-75